createdAt,value
2018-10-12T00:01:33.102Z,96258.10
2018-10-12T00:04:02.796Z,96267.55
2018-10-12T00:06:32.485Z,96272.39
2018-10-12T00:09:02.695Z,96271.86
2018-10-12T00:11:32.377Z,96273.37
2018-10-12T00:14:02.026Z,96276.38
2018-10-12T00:16:31.685Z,96277.64
2018-10-12T00:19:01.800Z,96277.98
2018-10-12T00:21:31.440Z,96281.28
2018-10-12T00:24:01.150Z,96284.52
2018-10-12T00:26:30.900Z,96285.36
2018-10-12T00:29:00.637Z,96281.58
2018-10-12T00:31:30.416Z,96286.75
2018-10-12T00:34:00.551Z,96289.94
2018-10-12T00:36:31.218Z,96287.85
2018-10-12T00:39:00.956Z,96292.51
2018-10-12T00:41:31.351Z,96284.69
2018-10-12T00:44:01.418Z,96294.39
2018-10-12T00:47:33.409Z,96293.08
2018-10-12T00:50:03.083Z,96289.11
2018-10-12T00:52:33.570Z,96292.06
2018-10-12T00:55:03.196Z,96292.33
2018-10-12T00:57:32.882Z,96295.09
2018-10-12T01:00:02.558Z,96296.44
2018-10-12T01:02:32.550Z,96298.05
2018-10-12T01:05:02.228Z,96299.89
2018-10-12T01:07:31.915Z,96310.09
2018-10-12T01:10:02.072Z,96300.70
2018-10-12T01:12:36.418Z,96309.86
2018-10-12T01:15:06.586Z,96306.94
2018-10-12T01:17:37.469Z,96306.13
2018-10-12T01:20:07.349Z,96312.53
2018-10-12T01:22:37.048Z,96311.20
2018-10-12T01:25:07.529Z,96315.28
2018-10-12T01:27:37.183Z,96322.02
2018-10-12T01:30:08.200Z,96319.59
2018-10-12T01:32:46.748Z,96316.95
2018-10-12T01:35:16.402Z,96315.35
2018-10-12T01:37:46.985Z,96322.36
2018-10-12T01:40:16.588Z,96318.90
2018-10-12T01:42:46.235Z,96317.28
2018-10-12T01:45:15.881Z,96319.94
2018-10-12T01:47:46.119Z,96317.29
2018-10-12T01:50:15.869Z,96317.56
2018-10-12T01:52:45.641Z,96317.55
2018-10-12T01:55:15.765Z,96324.77
2018-10-12T01:57:46.893Z,96324.23
2018-10-12T02:00:16.565Z,96322.34
2018-10-12T02:02:46.207Z,96329.08
2018-10-12T02:05:16.858Z,96333.64
2018-10-12T02:07:46.543Z,96329.81
2018-10-12T02:10:16.231Z,96333.05
2018-10-12T02:12:45.845Z,96339.75
2018-10-12T02:15:15.554Z,96336.76
2018-10-12T02:17:45.679Z,96334.87
2018-10-12T02:20:16.334Z,96338.11
2018-10-12T02:22:46.724Z,96342.95
2018-10-12T02:25:16.706Z,96341.28
2018-10-12T02:27:46.345Z,96344.84
2018-10-12T02:30:16.069Z,96346.45
2018-10-12T02:32:45.663Z,96352.05
2018-10-12T02:35:15.957Z,96352.58
2018-10-12T02:37:45.654Z,96356.23
2018-10-12T02:40:15.302Z,96360.77
2018-10-12T02:42:44.928Z,96357.55
2018-10-12T02:45:15.066Z,96357.53
2018-10-12T02:47:44.746Z,96360.77
2018-10-12T02:50:14.401Z,96362.13
2018-10-12T02:52:44.057Z,96365.09
2018-10-12T02:55:13.706Z,96368.85
2018-10-12T02:57:43.396Z,96373.66
2018-10-12T03:00:13.061Z,96374.19
2018-10-12T03:02:43.061Z,96380.92
2018-10-12T03:05:12.682Z,96379.89
2018-10-12T03:07:42.351Z,96390.17
2018-10-12T03:10:12.661Z,96390.75
2018-10-12T03:12:43.240Z,96395.89
2018-10-12T03:15:14.068Z,96401.06
2018-10-12T03:17:44.221Z,96401.07
2018-10-12T03:20:13.897Z,96395.69
2018-10-12T03:22:43.529Z,96399.11
2018-10-12T03:25:13.299Z,96395.59
2018-10-12T03:27:53.754Z,96398.86
2018-10-12T03:30:23.430Z,96402.41
2018-10-12T03:32:55.278Z,96408.63
2018-10-12T03:35:25.944Z,96409.63
2018-10-12T03:37:56.270Z,96406.33
2018-10-12T03:40:26.018Z,96415.48
2018-10-12T03:42:55.683Z,96410.37
2018-10-12T03:45:25.494Z,96407.41
2018-10-12T03:47:55.671Z,96407.95
2018-10-12T03:50:25.317Z,96407.66
2018-10-12T03:52:54.970Z,96403.28
2018-10-12T03:55:24.673Z,96407.59
2018-10-12T03:57:55.215Z,96407.84
2018-10-12T04:00:24.857Z,96409.46
2018-10-12T04:02:54.895Z,96410.73
2018-10-12T04:05:25.315Z,96419.84
2018-10-12T04:07:54.974Z,96423.53
2018-10-12T04:10:25.100Z,96424.59
2018-10-12T04:12:55.109Z,96420.28
2018-10-12T04:15:24.838Z,96432.13
2018-10-12T04:17:54.518Z,96434.84
2018-10-12T04:20:26.957Z,96431.62
2018-10-12T04:22:58.792Z,96438.41
2018-10-12T04:25:29.119Z,96438.44
2018-10-12T04:27:58.765Z,96444.42
2018-10-12T04:30:30.236Z,96441.73
2018-10-12T04:33:00.726Z,96456.86
2018-10-12T04:35:30.368Z,96445.86
2018-10-12T04:38:00.036Z,96452.34
2018-10-12T04:41:09.695Z,96451.33
2018-10-12T04:43:39.760Z,96447.35
2018-10-12T04:46:12.849Z,96452.52
2018-10-12T04:48:43.318Z,96449.33
2018-10-12T04:51:20.942Z,96451.23
2018-10-12T04:53:50.967Z,96451.81
2018-10-12T04:56:21.601Z,96455.31
2018-10-12T04:58:51.258Z,96456.91
2018-10-12T05:01:28.348Z,96457.45
2018-10-12T05:03:58.022Z,96467.98
2018-10-12T05:06:27.711Z,96464.16
2018-10-12T05:08:57.701Z,96468.42
2018-10-12T05:11:27.388Z,96472.73
2018-10-12T05:13:57.051Z,96471.12
2018-10-12T05:16:26.710Z,96475.14
2018-10-12T05:18:56.677Z,96475.14
2018-10-12T05:21:26.358Z,96476.75
2018-10-12T05:23:56.041Z,96478.86
2018-10-12T05:26:25.766Z,96482.36
2018-10-12T05:28:55.495Z,96478.59
2018-10-12T05:31:25.176Z,96488.29
2018-10-12T05:33:55.350Z,96488.83
2018-10-12T05:36:25.070Z,96486.67
2018-10-12T05:38:54.773Z,96495.23
2018-10-12T05:41:24.441Z,96503.80
2018-10-12T05:43:57.954Z,96506.91
2018-10-12T05:46:32.460Z,96507.92
2018-10-12T05:49:12.613Z,96507.58
2018-10-12T05:51:42.318Z,96516.13
2018-10-12T05:54:11.998Z,96518.53
2018-10-12T05:56:41.706Z,96523.33
2018-10-12T05:59:11.334Z,96520.61
2018-10-12T06:01:41.502Z,96523.51
2018-10-12T06:04:12.786Z,96534.51
2018-10-12T06:06:42.452Z,96534.63
2018-10-12T06:09:12.073Z,96540.48
2018-10-12T06:11:41.756Z,96549.27
2018-10-12T06:14:13.065Z,96551.03
2018-10-12T06:16:42.783Z,96565.50
2018-10-12T06:19:12.920Z,96562.33
2018-10-12T06:21:43.142Z,96565.20
2018-10-12T06:24:12.779Z,96563.30
2018-10-12T06:26:44.368Z,96564.32
2018-10-12T06:29:13.999Z,96560.86
2018-10-12T06:31:43.666Z,96570.63
2018-10-12T06:34:13.319Z,96580.10
2018-10-12T06:36:46.635Z,96570.96
2018-10-12T06:39:17.150Z,96579.91
2018-10-12T06:41:47.566Z,96587.84
2018-10-12T06:44:17.737Z,96583.62
2018-10-12T06:46:47.704Z,96585.53
2018-10-12T06:49:17.869Z,96589.65
2018-10-12T06:51:48.580Z,96596.41
2018-10-12T06:54:19.089Z,96608.02
2018-10-12T06:56:49.274Z,96607.20
2018-10-12T06:59:19.402Z,96609.91
2018-10-12T07:01:49.650Z,96613.89
2018-10-12T07:04:19.273Z,96626.57
2018-10-12T07:06:49.399Z,96627.66
2018-10-12T07:09:19.143Z,96630.63
2018-10-12T07:11:49.459Z,96634.92
2018-10-12T07:14:19.129Z,96646.45
2018-10-12T07:16:49.223Z,96658.28
2018-10-12T07:19:19.497Z,96660.97
2018-10-12T07:21:49.681Z,96664.19
2018-10-12T07:24:19.325Z,96677.97
2018-10-12T07:26:49.181Z,96671.21
2018-10-12T07:29:24.224Z,96668.23
2018-10-12T07:31:54.110Z,96669.27
2018-10-12T07:34:24.317Z,96670.08
2018-10-12T07:36:55.289Z,96677.88
2018-10-12T07:39:26.861Z,96671.57
2018-10-12T07:41:56.525Z,96673.86
2018-10-12T07:44:26.170Z,96671.57
2018-10-12T07:46:55.836Z,96682.17
2018-10-12T07:49:25.794Z,96681.77
2018-10-12T07:51:59.258Z,96673.34
2018-10-12T07:54:29.863Z,96680.31
2018-10-12T07:57:04.546Z,96679.81
2018-10-12T07:59:35.595Z,96684.50
2018-10-12T08:02:07.137Z,96693.69
2018-10-12T08:04:38.420Z,96692.84
2018-10-12T08:07:09.281Z,96695.02
2018-10-12T08:09:39.471Z,96697.11
2018-10-12T08:12:09.953Z,96704.62
2018-10-12T08:14:40.401Z,96715.47
2018-10-12T08:17:10.932Z,96709.05
2018-10-12T08:19:41.041Z,96711.59
2018-10-12T08:22:11.602Z,96713.33
2018-10-12T08:24:42.966Z,96710.02
2018-10-12T08:27:13.281Z,96702.41
2018-10-12T08:29:43.930Z,96708.00
2018-10-12T08:32:13.673Z,96709.41
2018-10-12T08:34:48.419Z,96717.71
2018-10-12T08:37:19.592Z,96714.91
2018-10-12T08:39:49.490Z,96712.58
2018-10-12T08:42:19.166Z,96717.59
2018-10-12T08:44:49.678Z,96723.47
2018-10-12T08:47:23.726Z,96728.56
2018-10-12T08:49:54.766Z,96729.03
2018-10-12T08:52:24.418Z,96725.88
2018-10-12T08:54:54.029Z,96727.58
2018-10-12T08:57:23.741Z,96730.86
2018-10-12T08:59:58.005Z,96738.63
2018-10-12T09:02:28.528Z,96735.09
2018-10-12T09:04:58.499Z,96736.77
2018-10-12T09:07:29.267Z,96739.18
2018-10-12T09:09:59.052Z,96739.73
2018-10-12T09:12:28.994Z,96740.98
2018-10-12T09:14:58.708Z,96750.27
2018-10-12T09:17:28.456Z,96751.97
2018-10-12T09:19:58.114Z,96750.93
2018-10-12T09:22:28.268Z,96745.59
2018-10-12T09:24:57.901Z,96749.75
2018-10-12T09:27:28.134Z,96754.33
2018-10-12T09:29:57.741Z,96761.14
2018-10-12T09:32:27.416Z,96761.52
2018-10-12T09:34:59.243Z,96759.59
2018-10-12T09:37:32.603Z,96766.25
2018-10-12T09:40:03.281Z,96764.48
2018-10-12T09:42:32.929Z,96757.47
2018-10-12T09:45:02.629Z,96758.56
2018-10-12T09:47:34.296Z,96768.06
2018-10-12T09:50:06.322Z,96769.89
2018-10-12T09:52:37.421Z,96769.33
2018-10-12T09:55:07.078Z,96768.36
2018-10-12T09:57:39.089Z,96775.31
2018-10-12T10:00:14.103Z,96776.44
2018-10-12T10:02:49.559Z,96784.73
2018-10-12T10:05:21.551Z,96773.41
2018-10-12T10:07:54.053Z,96781.01
2018-10-12T10:10:25.464Z,96781.66
2018-10-12T10:12:55.680Z,96775.59
2018-10-12T10:15:25.368Z,96776.21
2018-10-12T10:17:55.082Z,96782.45
2018-10-12T10:20:26.180Z,96784.80
2018-10-12T10:22:57.280Z,96769.95
2018-10-12T10:25:28.540Z,96769.73
2018-10-12T10:27:59.044Z,96771.95
2018-10-12T10:30:29.360Z,96776.84
2018-10-12T10:33:00.316Z,96777.34
2018-10-12T10:35:29.965Z,96777.75
2018-10-12T10:37:59.688Z,96784.27
2018-10-12T10:40:29.337Z,96777.80
2018-10-12T10:43:02.692Z,96783.58
2018-10-12T10:45:32.362Z,96785.14
2018-10-12T10:48:03.420Z,96780.56
2018-10-12T10:50:34.296Z,96782.36
2018-10-12T10:53:06.921Z,96783.16
2018-10-12T10:55:36.560Z,96781.04
2018-10-12T10:58:06.208Z,96777.50
2018-10-12T11:00:36.817Z,96777.27
2018-10-12T11:03:07.718Z,96769.51
2018-10-12T11:05:39.296Z,96769.89
2018-10-12T11:08:18.690Z,96768.52
2018-10-12T11:10:49.181Z,96779.91
2018-10-12T11:13:20.367Z,96777.02
2018-10-12T11:15:51.632Z,96780.47
2018-10-12T11:18:21.285Z,96776.14
2018-10-12T11:20:51.289Z,96775.80
2018-10-12T11:23:23.568Z,96773.97
2018-10-12T11:25:53.209Z,96774.47
2018-10-12T11:28:22.921Z,96767.44
2018-10-12T11:30:52.581Z,96760.88
2018-10-12T11:33:24.159Z,96765.70
2018-10-12T11:35:54.672Z,96763.19
2018-10-12T11:38:24.333Z,96769.31
2018-10-12T11:40:55.321Z,96765.10
2018-10-12T11:43:30.262Z,96765.58
2018-10-12T11:46:00.590Z,96764.05
2018-10-12T11:48:31.102Z,96760.36
2018-10-12T11:51:01.681Z,96764.42
2018-10-12T11:53:33.132Z,96760.68
2018-10-12T11:56:03.835Z,96757.09
2018-10-12T11:58:35.400Z,96753.48
2018-10-12T12:01:05.921Z,96749.18
2018-10-12T12:03:37.085Z,96752.95
2018-10-12T12:06:09.064Z,96755.33
2018-10-12T12:08:40.173Z,96747.22
2018-10-12T12:11:11.742Z,96748.15
2018-10-12T12:13:43.382Z,96751.20
2018-10-12T12:16:13.222Z,96747.02
2018-10-12T12:18:42.860Z,96747.33
2018-10-12T12:21:14.361Z,96745.09
2018-10-12T12:23:45.105Z,96740.43
2018-10-12T12:26:14.717Z,96741.43
2018-10-12T12:28:47.146Z,96736.53
2018-10-12T12:31:18.068Z,96739.45
2018-10-12T12:33:47.682Z,96740.78
2018-10-12T12:36:17.712Z,96742.72
2018-10-12T12:38:47.312Z,96749.55
2018-10-12T12:41:18.676Z,96749.62
2018-10-12T12:50:01.481Z,96751.31
2018-10-12T12:52:32.365Z,96754.05
2018-10-12T12:55:02.177Z,96752.23
2018-10-12T12:57:31.906Z,96749.91
2018-10-12T13:00:01.573Z,96758.84
2018-10-12T13:02:31.298Z,96750.41
2018-10-12T13:05:00.929Z,96755.31
2018-10-12T13:07:32.448Z,96752.66
2018-10-12T13:10:02.100Z,96751.78
2018-10-12T13:12:31.779Z,96757.16
2018-10-12T13:15:01.509Z,96753.41
2018-10-12T13:17:32.243Z,96755.09
2018-10-12T13:20:04.219Z,96756.22
2018-10-12T13:22:33.841Z,96765.23
2018-10-12T13:25:03.489Z,96771.86
2018-10-12T13:27:35.093Z,96771.06
2018-10-12T13:30:04.796Z,96773.55
2018-10-12T13:32:34.512Z,96769.88
2018-10-12T13:35:04.246Z,96774.03
2018-10-12T13:37:34.916Z,96772.34
2018-10-12T13:40:04.658Z,96778.00
2018-10-12T13:42:35.402Z,96774.59
2018-10-12T13:45:05.020Z,96771.30
2018-10-12T13:47:35.579Z,96767.95
2018-10-12T13:50:08.691Z,96769.88
2018-10-12T13:52:39.377Z,96775.47
2018-10-12T13:55:10.137Z,96773.06
2018-10-12T13:57:39.777Z,96777.83
2018-10-12T14:00:10.426Z,96773.73
2018-10-12T14:02:42.618Z,96775.66
2018-10-12T14:05:12.259Z,96774.78
2018-10-12T14:07:42.593Z,96771.80
2018-10-12T14:10:12.780Z,96771.64
2018-10-12T14:12:42.428Z,96764.02
2018-10-12T14:15:12.058Z,96770.77
2018-10-12T14:17:41.700Z,96773.56
2018-10-12T14:20:16.375Z,96771.82
2018-10-12T14:22:49.186Z,96773.50
2018-10-12T14:25:21.262Z,96767.56
2018-10-12T14:27:53.116Z,96766.38
2018-10-12T14:30:23.647Z,96770.55
2018-10-12T14:32:56.085Z,96773.91
2018-10-12T14:35:26.586Z,96768.77
2018-10-12T14:38:00.629Z,96769.89
2018-10-12T14:40:32.476Z,96772.80
2018-10-12T14:43:02.133Z,96785.31
2018-10-12T14:45:31.775Z,96784.41
2018-10-12T14:48:02.340Z,96787.30
2018-10-12T14:50:33.336Z,96787.13
2018-10-12T14:53:05.610Z,96775.34
2018-10-12T14:55:35.250Z,96781.32
2018-10-12T14:58:06.940Z,96777.71
2018-10-12T15:00:37.559Z,96780.98
2018-10-12T15:03:11.383Z,96778.31
2018-10-12T15:05:41.205Z,96780.27
2018-10-12T15:08:12.192Z,96786.08
2018-10-12T15:10:41.974Z,96786.20
2018-10-12T15:13:13.519Z,96791.92
2018-10-12T15:15:44.789Z,96788.75
2018-10-12T15:18:15.393Z,96794.55
2018-10-12T15:20:45.377Z,96795.61
2018-10-12T15:23:15.753Z,96785.14
2018-10-12T15:25:50.236Z,96788.06
2018-10-12T15:28:20.716Z,96785.95
2018-10-12T15:30:51.501Z,96787.76
2018-10-12T15:33:34.474Z,96779.66
2018-10-12T15:36:04.315Z,96783.98
2018-10-12T15:38:36.037Z,96785.11
2018-10-12T15:41:08.082Z,96787.17
2018-10-12T15:43:38.634Z,96787.77
2018-10-12T15:46:08.655Z,96779.96
2018-10-12T15:48:40.093Z,96781.59
2018-10-12T15:51:14.055Z,96776.37
2018-10-12T15:53:45.258Z,96781.26
2018-10-12T15:56:15.813Z,96786.64
2018-10-12T15:58:46.620Z,96795.12
2018-10-12T16:01:20.887Z,96795.07
2018-10-12T16:04:16.096Z,96797.98
2018-10-12T16:06:48.725Z,96803.78
2018-10-12T16:09:18.825Z,96800.45
2018-10-12T16:11:49.974Z,96799.88
2018-10-12T16:14:22.355Z,96801.59
2018-10-12T16:16:52.372Z,96809.20
2018-10-12T16:19:23.395Z,96809.88
2018-10-12T16:21:53.400Z,96812.84
2018-10-12T16:24:25.985Z,96815.09
2018-10-12T16:26:55.994Z,96810.05
2018-10-12T16:29:27.360Z,96806.91
2018-10-12T16:31:57.432Z,96818.95
2018-10-12T16:34:28.258Z,96820.91
2018-10-12T16:36:59.986Z,96827.06
2018-10-12T16:39:31.208Z,96833.98
2018-10-12T16:42:02.660Z,96831.94
2018-10-12T16:44:32.755Z,96836.70
2018-10-12T16:47:02.835Z,96834.39
2018-10-12T16:49:36.067Z,96843.16
2018-10-12T16:52:09.377Z,96845.78
2018-10-12T16:54:41.174Z,96849.12
2018-10-12T16:57:41.520Z,96852.08
2018-10-12T17:00:15.418Z,96850.81
2018-10-12T17:02:45.571Z,96861.72
2018-10-12T17:05:18.031Z,96865.58
2018-10-12T17:07:48.911Z,96866.15
2018-10-12T17:10:20.342Z,96864.02
2018-10-12T17:12:53.341Z,96868.59
2018-10-12T17:15:25.672Z,96868.84
2018-10-12T17:18:01.279Z,96869.41
2018-10-12T17:20:34.110Z,96871.62
2018-10-12T17:23:05.296Z,96872.45
2018-10-12T17:25:37.398Z,96877.11
2018-10-12T17:28:08.717Z,96873.39
2018-10-12T17:30:40.697Z,96879.11
2018-10-12T17:33:11.652Z,96877.23
2018-10-12T17:35:44.577Z,96882.63
2018-10-12T17:38:16.562Z,96881.98
2018-10-12T17:40:48.383Z,96878.38
2018-10-12T17:43:20.524Z,96878.06
2018-10-12T17:45:54.851Z,96880.77
2018-10-12T17:48:26.639Z,96881.89
2018-10-12T17:51:00.565Z,96888.67
2018-10-12T17:53:30.935Z,96884.88
2018-10-12T17:56:01.069Z,96890.55
2018-10-12T17:58:32.814Z,96901.09
2018-10-12T18:01:08.426Z,96897.05
2018-10-12T18:03:45.493Z,96896.55
2018-10-12T18:06:16.244Z,96899.80
2018-10-12T18:08:46.431Z,96898.98
2018-10-12T18:11:16.522Z,96894.98
2018-10-12T18:13:47.642Z,96902.03
2018-10-12T18:16:21.456Z,96905.31
2018-10-12T18:18:52.497Z,96899.09
2018-10-12T18:21:24.770Z,96905.08
2018-10-12T18:23:56.687Z,96912.96
2018-10-12T18:26:27.868Z,96915.39
2018-10-12T18:29:02.166Z,96918.91
2018-10-12T18:31:34.176Z,96921.84
2018-10-12T18:34:08.969Z,96921.84
2018-10-12T18:36:43.748Z,96921.34
2018-10-12T18:39:17.789Z,96920.56
2018-10-12T18:41:50.250Z,96920.80
2018-10-12T18:44:20.335Z,96924.27
2018-10-12T18:46:51.745Z,96923.41
2018-10-12T18:49:22.777Z,96925.56
2018-10-12T18:51:58.657Z,96922.06
2018-10-12T18:54:28.713Z,96926.92
2018-10-12T18:56:59.167Z,96928.27
2018-10-12T18:59:32.545Z,96926.06
2018-10-12T19:02:02.715Z,96919.84
2018-10-12T19:04:33.118Z,96922.28
2018-10-12T19:07:05.481Z,96917.97
2018-10-12T19:09:36.336Z,96915.53
2018-10-12T19:12:07.626Z,96913.68
2018-10-12T19:14:39.008Z,96912.06
2018-10-12T19:17:09.402Z,96914.27
2018-10-12T19:19:40.813Z,96913.47
2018-10-12T19:22:14.470Z,96912.38
2018-10-12T19:24:46.311Z,96918.33
2018-10-12T19:27:27.250Z,96917.25
2018-10-12T19:30:03.106Z,96917.02
2018-10-12T19:32:36.308Z,96919.75
2018-10-12T19:35:09.411Z,96915.97
2018-10-12T19:37:41.416Z,96914.09
2018-10-12T19:40:14.187Z,96914.89
2018-10-12T19:42:46.477Z,96916.75
2018-10-12T19:45:21.311Z,96913.55
2018-10-12T19:47:52.775Z,96914.59
2018-10-12T19:50:24.285Z,96913.27
2018-10-12T19:53:01.237Z,96919.48
2018-10-12T19:55:33.672Z,96916.75
2018-10-12T19:58:05.772Z,96919.17
2018-10-12T20:00:36.843Z,96916.17
2018-10-12T20:03:07.599Z,96918.63
2018-10-12T20:05:42.400Z,96917.83
2018-10-12T20:08:13.282Z,96923.50
2018-10-12T20:10:44.291Z,96914.85
2018-10-12T20:13:15.710Z,96921.61
2018-10-12T20:15:50.267Z,96921.61
2018-10-12T20:18:22.465Z,96922.95
2018-10-12T20:20:54.366Z,96919.98
2018-10-12T20:23:25.479Z,96919.75
2018-10-12T20:25:56.019Z,96913.58
2018-10-12T20:28:26.060Z,96922.45
2018-10-12T20:30:56.219Z,96915.20
2018-10-12T20:33:26.251Z,96909.53
2018-10-12T20:35:58.862Z,96908.19
2018-10-12T20:38:30.767Z,96906.33
2018-10-12T20:41:03.564Z,96911.72
2018-10-12T20:43:37.066Z,96913.91
2018-10-12T20:46:09.612Z,96912.30
2018-10-12T20:48:40.522Z,96913.34
2018-10-12T20:51:12.856Z,96908.22
2018-10-12T20:53:45.337Z,96905.52
2018-10-12T20:56:15.352Z,96902.55
2018-10-12T20:58:47.506Z,96907.14
2018-10-12T21:01:21.383Z,96907.67
2018-10-12T21:03:53.869Z,96915.23
2018-10-12T21:06:24.442Z,96911.45
2018-10-12T21:08:55.369Z,96906.59
2018-10-12T21:11:25.433Z,96899.55
2018-10-12T21:13:55.411Z,96903.33
2018-10-12T21:16:28.822Z,96901.67
2018-10-12T21:18:59.923Z,96897.08
2018-10-12T21:21:30.847Z,96898.66
2018-10-12T21:24:01.801Z,96904.37
2018-10-12T21:26:33.207Z,96900.31
2018-10-12T21:29:03.253Z,96898.97
2018-10-12T21:31:34.392Z,96904.09
2018-10-12T21:34:04.057Z,96894.11
2018-10-12T21:36:34.245Z,96894.14
2018-10-12T21:39:05.018Z,96901.70
2018-10-12T21:41:37.205Z,96897.38
2018-10-12T21:44:08.618Z,96900.05
2018-10-12T21:46:42.856Z,96896.00
2018-10-12T21:49:13.393Z,96894.38
2018-10-12T21:51:44.527Z,96893.57
2018-10-12T21:54:14.559Z,96893.30
2018-10-12T21:56:45.173Z,96893.80
2018-10-12T21:59:14.846Z,96896.00
2018-10-12T22:01:45.381Z,96899.50
2018-10-12T22:04:15.013Z,96891.13
2018-10-12T22:06:44.621Z,96886.55
2018-10-12T22:09:14.598Z,96890.06
2018-10-12T22:11:46.881Z,96889.55
2018-10-12T22:14:17.676Z,96891.45
2018-10-12T22:16:48.153Z,96889.28
2018-10-12T22:19:18.455Z,96885.47
2018-10-12T22:21:48.123Z,96886.31
2018-10-12T22:24:18.213Z,96882.77
2018-10-12T22:26:49.230Z,96882.72
2018-10-12T22:29:18.865Z,96881.95
2018-10-12T22:31:53.355Z,96884.66
2018-10-12T22:34:23.817Z,96885.20
2018-10-12T22:36:54.721Z,96887.94
2018-10-12T22:39:24.460Z,96886.59
2018-10-12T22:41:54.115Z,96886.86
2018-10-12T22:44:24.654Z,96890.91
2018-10-12T22:46:54.651Z,96890.63
2018-10-12T22:49:24.320Z,96892.52
2018-10-12T22:51:54.281Z,96891.14
2018-10-12T22:54:25.301Z,96888.75
2018-10-12T22:56:54.929Z,96899.01
2018-10-12T22:59:25.805Z,96891.48
2018-10-12T23:01:55.543Z,96896.61
2018-10-12T23:04:25.198Z,96892.25
2018-10-12T23:06:55.362Z,96887.67
2018-10-12T23:09:26.005Z,96891.98
2018-10-12T23:11:55.689Z,96891.18
2018-10-12T23:14:27.077Z,96884.97
2018-10-12T23:16:56.762Z,96888.17
2018-10-12T23:19:35.501Z,96887.66
2018-10-12T23:22:05.262Z,96886.81
2018-10-12T23:24:35.637Z,96881.42
2018-10-12T23:27:06.232Z,96888.66
2018-10-12T23:29:39.260Z,96884.34
2018-10-12T23:32:09.696Z,96882.19
2018-10-12T23:34:41.616Z,96882.80
2018-10-12T23:37:12.600Z,96881.19
2018-10-12T23:39:43.616Z,96884.97
2018-10-12T23:42:13.277Z,96885.23
2018-10-12T23:44:44.364Z,96891.41
2018-10-12T23:47:14.114Z,96884.62
2018-10-12T23:49:44.573Z,96889.75
2018-10-12T23:52:16.226Z,96887.09
2018-10-12T23:54:45.937Z,96887.12
2018-10-12T23:57:18.617Z,96885.55
2018-10-12T23:59:49.841Z,96894.45
